sensor_id;sensor_type;location;lat;lon;timestamp;temperature;humidity
36206;DHT22;22242;48.796;9.930;2022-08-25T00:00:21;20.50;99.90
36206;DHT22;22242;48.796;9.930;2022-08-25T00:02:48;20.40;99.90
36206;DHT22;22242;48.796;9.930;2022-08-25T00:05:15;20.30;99.90
36206;DHT22;22242;48.796;9.930;2022-08-25T00:07:42;20.40;99.90
36206;DHT22;22242;48.796;9.930;2022-08-25T00:10:09;20.30;99.90
36206;DHT22;22242;48.796;9.930;2022-08-25T00:12:36;20.20;99.90
36206;DHT22;22242;48.796;9.930;2022-08-25T00:15:06;20.10;99.90
36206;DHT22;22242;48.796;9.930;2022-08-25T00:17:34;20.00;99.90
36206;DHT22;22242;48.796;9.930;2022-08-25T00:20:02;20.00;99.90
36206;DHT22;22242;48.796;9.930;2022-08-25T00:22:29;19.90;99.90
36206;DHT22;22242;48.796;9.930;2022-08-25T00:24:56;19.90;99.90
36206;DHT22;22242;48.796;9.930;2022-08-25T00:27:23;19.80;99.90
36206;DHT22;22242;48.796;9.930;2022-08-25T00:29:50;19.70;99.90
36206;DHT22;22242;48.796;9.930;2022-08-25T00:32:18;19.70;99.90
36206;DHT22;22242;48.796;9.930;2022-08-25T00:34:45;19.90;99.90
36206;DHT22;22242;48.796;9.930;2022-08-25T00:37:12;19.60;99.90
36206;DHT22;22242;48.796;9.930;2022-08-25T00:39:40;19.60;99.90
36206;DHT22;22242;48.796;9.930;2022-08-25T00:42:08;19.60;99.90
36206;DHT22;22242;48.796;9.930;2022-08-25T00:44:35;19.60;99.90
36206;DHT22;22242;48.796;9.930;2022-08-25T00:47:03;19.60;99.90
36206;DHT22;22242;48.796;9.930;2022-08-25T00:49:35;19.70;99.90
36206;DHT22;22242;48.796;9.930;2022-08-25T00:52:06;19.60;99.90
36206;DHT22;22242;48.796;9.930;2022-08-25T00:54:38;19.70;99.90
36206;DHT22;22242;48.796;9.930;2022-08-25T00:57:08;19.60;99.90
36206;DHT22;22242;48.796;9.930;2022-08-25T00:59:37;19.50;99.90
36206;DHT22;22242;48.796;9.930;2022-08-25T01:02:06;19.50;99.90
36206;DHT22;22242;48.796;9.930;2022-08-25T01:04:35;19.40;99.90
36206;DHT22;22242;48.796;9.930;2022-08-25T01:07:03;19.40;99.90
36206;DHT22;22242;48.796;9.930;2022-08-25T01:09:32;19.60;99.90
36206;DHT22;22242;48.796;9.930;2022-08-25T01:12:00;19.50;99.90
36206;DHT22;22242;48.796;9.930;2022-08-25T01:14:28;19.50;99.90
36206;DHT22;22242;48.796;9.930;2022-08-25T01:16:56;19.70;99.90
36206;DHT22;22242;48.796;9.930;2022-08-25T01:19:25;19.60;99.90
36206;DHT22;22242;48.796;9.930;2022-08-25T01:21:54;19.40;99.90
36206;DHT22;22242;48.796;9.930;2022-08-25T01:24:27;19.50;99.90
36206;DHT22;22242;48.796;9.930;2022-08-25T01:26:56;19.40;99.90
36206;DHT22;22242;48.796;9.930;2022-08-25T01:29:23;19.50;99.90
36206;DHT22;22242;48.796;9.930;2022-08-25T01:31:53;19.50;99.90
36206;DHT22;22242;48.796;9.930;2022-08-25T01:34:23;19.50;99.90
36206;DHT22;22242;48.796;9.930;2022-08-25T01:36:50;19.40;99.90
36206;DHT22;22242;48.796;9.930;2022-08-25T01:39:18;19.40;99.90
36206;DHT22;22242;48.796;9.930;2022-08-25T01:41:57;19.50;99.90
36206;DHT22;22242;48.796;9.930;2022-08-25T01:44:25;19.50;99.90
36206;DHT22;22242;48.796;9.930;2022-08-25T01:46:52;19.70;99.90
36206;DHT22;22242;48.796;9.930;2022-08-25T01:49:21;19.50;99.90
36206;DHT22;22242;48.796;9.930;2022-08-25T01:51:52;19.50;99.90
36206;DHT22;22242;48.796;9.930;2022-08-25T01:54:23;19.50;99.90
36206;DHT22;22242;48.796;9.930;2022-08-25T01:56:49;19.70;99.90
36206;DHT22;22242;48.796;9.930;2022-08-25T01:59:17;19.60;99.90
36206;DHT22;22242;48.796;9.930;2022-08-25T02:01:45;19.60;99.90
36206;DHT22;22242;48.796;9.930;2022-08-25T02:04:12;19.60;99.90
36206;DHT22;22242;48.796;9.930;2022-08-25T02:06:39;19.60;99.90
36206;DHT22;22242;48.796;9.930;2022-08-25T02:09:08;19.60;99.90
36206;DHT22;22242;48.796;9.930;2022-08-25T02:11:39;19.70;99.90
36206;DHT22;22242;48.796;9.930;2022-08-25T02:14:08;19.70;99.90
36206;DHT22;22242;48.796;9.930;2022-08-25T02:16:38;19.60;99.90
36206;DHT22;22242;48.796;9.930;2022-08-25T02:19:06;19.50;99.90
36206;DHT22;22242;48.796;9.930;2022-08-25T02:21:34;19.50;99.90
36206;DHT22;22242;48.796;9.930;2022-08-25T02:24:02;19.60;99.90
36206;DHT22;22242;48.796;9.930;2022-08-25T02:26:29;19.70;99.90
36206;DHT22;22242;48.796;9.930;2022-08-25T02:28:58;19.60;99.90
36206;DHT22;22242;48.796;9.930;2022-08-25T02:31:25;19.50;99.90
36206;DHT22;22242;48.796;9.930;2022-08-25T02:33:52;19.40;99.90
36206;DHT22;22242;48.796;9.930;2022-08-25T02:36:20;19.00;99.90
36206;DHT22;22242;48.796;9.930;2022-08-25T02:38:48;18.70;99.90
36206;DHT22;22242;48.796;9.930;2022-08-25T02:41:16;18.30;99.90
36206;DHT22;22242;48.796;9.930;2022-08-25T02:43:45;18.00;99.90
36206;DHT22;22242;48.796;9.930;2022-08-25T02:46:16;17.80;99.90
36206;DHT22;22242;48.796;9.930;2022-08-25T02:48:43;17.60;99.90
36206;DHT22;22242;48.796;9.930;2022-08-25T02:51:10;17.50;99.90
36206;DHT22;22242;48.796;9.930;2022-08-25T02:53:39;17.40;99.90
36206;DHT22;22242;48.796;9.930;2022-08-25T02:56:08;17.30;99.90
36206;DHT22;22242;48.796;9.930;2022-08-25T02:58:37;17.30;99.90
36206;DHT22;22242;48.796;9.930;2022-08-25T03:01:05;17.20;99.90
36206;DHT22;22242;48.796;9.930;2022-08-25T03:03:35;17.10;99.90
36206;DHT22;22242;48.796;9.930;2022-08-25T03:06:02;17.10;99.90
36206;DHT22;22242;48.796;9.930;2022-08-25T03:08:30;17.00;99.90
36206;DHT22;22242;48.796;9.930;2022-08-25T03:10:56;17.00;99.90
36206;DHT22;22242;48.796;9.930;2022-08-25T03:13:23;16.90;99.90
36206;DHT22;22242;48.796;9.930;2022-08-25T03:18:19;16.80;99.90
36206;DHT22;22242;48.796;9.930;2022-08-25T03:20:49;16.80;99.90
36206;DHT22;22242;48.796;9.930;2022-08-25T03:23:16;16.70;99.90
36206;DHT22;22242;48.796;9.930;2022-08-25T03:25:43;16.80;99.90
36206;DHT22;22242;48.796;9.930;2022-08-25T03:28:28;16.70;99.90
36206;DHT22;22242;48.796;9.930;2022-08-25T03:30:57;16.70;99.90
36206;DHT22;22242;48.796;9.930;2022-08-25T03:33:25;16.70;99.90
36206;DHT22;22242;48.796;9.930;2022-08-25T03:35:53;16.60;99.90
36206;DHT22;22242;48.796;9.930;2022-08-25T03:38:20;16.60;99.90
36206;DHT22;22242;48.796;9.930;2022-08-25T03:40:48;16.60;99.90
36206;DHT22;22242;48.796;9.930;2022-08-25T03:43:15;16.60;99.90
36206;DHT22;22242;48.796;9.930;2022-08-25T03:45:44;16.60;99.90
36206;DHT22;22242;48.796;9.930;2022-08-25T03:48:12;16.50;99.90
36206;DHT22;22242;48.796;9.930;2022-08-25T03:50:43;16.40;99.90
36206;DHT22;22242;48.796;9.930;2022-08-25T03:53:12;16.50;99.90
36206;DHT22;22242;48.796;9.930;2022-08-25T03:55:39;16.40;99.90
36206;DHT22;22242;48.796;9.930;2022-08-25T03:58:07;16.40;99.90
36206;DHT22;22242;48.796;9.930;2022-08-25T04:00:34;16.30;99.90
36206;DHT22;22242;48.796;9.930;2022-08-25T04:03:01;16.30;99.90
36206;DHT22;22242;48.796;9.930;2022-08-25T04:05:28;16.30;99.90
36206;DHT22;22242;48.796;9.930;2022-08-25T04:07:55;16.30;99.90
36206;DHT22;22242;48.796;9.930;2022-08-25T04:10:23;16.20;99.90
36206;DHT22;22242;48.796;9.930;2022-08-25T04:12:50;16.20;99.90
36206;DHT22;22242;48.796;9.930;2022-08-25T04:15:17;16.20;99.90
36206;DHT22;22242;48.796;9.930;2022-08-25T04:17:44;16.20;99.90
36206;DHT22;22242;48.796;9.930;2022-08-25T04:20:11;16.20;99.90
36206;DHT22;22242;48.796;9.930;2022-08-25T04:22:38;16.10;99.90
36206;DHT22;22242;48.796;9.930;2022-08-25T04:25:06;16.10;99.90
36206;DHT22;22242;48.796;9.930;2022-08-25T04:27:35;16.10;99.90
36206;DHT22;22242;48.796;9.930;2022-08-25T04:30:04;16.10;99.90
36206;DHT22;22242;48.796;9.930;2022-08-25T04:32:31;16.10;99.90
36206;DHT22;22242;48.796;9.930;2022-08-25T04:34:58;16.10;99.90
36206;DHT22;22242;48.796;9.930;2022-08-25T04:37:25;16.00;99.90
36206;DHT22;22242;48.796;9.930;2022-08-25T04:39:52;16.00;99.90
36206;DHT22;22242;48.796;9.930;2022-08-25T04:42:19;16.10;99.90
36206;DHT22;22242;48.796;9.930;2022-08-25T04:44:47;15.90;99.90
36206;DHT22;22242;48.796;9.930;2022-08-25T04:47:15;16.10;99.90
36206;DHT22;22242;48.796;9.930;2022-08-25T04:49:42;16.10;99.90
36206;DHT22;22242;48.796;9.930;2022-08-25T04:52:09;16.10;99.90
36206;DHT22;22242;48.796;9.930;2022-08-25T04:54:36;16.10;99.90
36206;DHT22;22242;48.796;9.930;2022-08-25T04:57:03;16.10;99.90
36206;DHT22;22242;48.796;9.930;2022-08-25T04:59:30;16.10;99.90
36206;DHT22;22242;48.796;9.930;2022-08-25T05:01:59;16.20;99.90
36206;DHT22;22242;48.796;9.930;2022-08-25T05:04:27;16.20;99.90
36206;DHT22;22242;48.796;9.930;2022-08-25T05:06:54;16.30;99.90
36206;DHT22;22242;48.796;9.930;2022-08-25T05:09:21;16.30;99.90
36206;DHT22;22242;48.796;9.930;2022-08-25T05:11:49;16.30;99.90
36206;DHT22;22242;48.796;9.930;2022-08-25T05:14:15;16.40;99.90
36206;DHT22;22242;48.796;9.930;2022-08-25T05:16:46;16.50;99.90
36206;DHT22;22242;48.796;9.930;2022-08-25T05:19:15;16.80;99.90
36206;DHT22;22242;48.796;9.930;2022-08-25T05:21:42;17.00;99.90
36206;DHT22;22242;48.796;9.930;2022-08-25T05:24:09;16.90;99.90
36206;DHT22;22242;48.796;9.930;2022-08-25T05:26:36;16.90;99.90
36206;DHT22;22242;48.796;9.930;2022-08-25T05:29:04;16.90;99.90
36206;DHT22;22242;48.796;9.930;2022-08-25T05:31:32;16.90;99.90
36206;DHT22;22242;48.796;9.930;2022-08-25T05:34:04;16.90;99.90
36206;DHT22;22242;48.796;9.930;2022-08-25T05:36:34;16.90;99.90
36206;DHT22;22242;48.796;9.930;2022-08-25T05:39:02;17.00;99.90
36206;DHT22;22242;48.796;9.930;2022-08-25T05:41:29;17.00;99.90
36206;DHT22;22242;48.796;9.930;2022-08-25T05:43:56;17.10;99.90
36206;DHT22;22242;48.796;9.930;2022-08-25T05:46:24;17.20;99.90
36206;DHT22;22242;48.796;9.930;2022-08-25T05:48:51;17.20;99.90
36206;DHT22;22242;48.796;9.930;2022-08-25T05:51:20;17.20;99.90
36206;DHT22;22242;48.796;9.930;2022-08-25T05:53:50;17.30;99.90
36206;DHT22;22242;48.796;9.930;2022-08-25T05:56:17;17.40;99.90
36206;DHT22;22242;48.796;9.930;2022-08-25T05:58:44;17.70;99.90
36206;DHT22;22242;48.796;9.930;2022-08-25T06:01:23;17.90;99.90
36206;DHT22;22242;48.796;9.930;2022-08-25T06:04:19;17.90;99.90
36206;DHT22;22242;48.796;9.930;2022-08-25T06:06:47;18.10;99.90
36206;DHT22;22242;48.796;9.930;2022-08-25T06:09:19;18.30;99.90
36206;DHT22;22242;48.796;9.930;2022-08-25T06:11:46;18.60;99.90
36206;DHT22;22242;48.796;9.930;2022-08-25T06:14:14;18.70;99.90
36206;DHT22;22242;48.796;9.930;2022-08-25T06:16:41;18.90;99.90
36206;DHT22;22242;48.796;9.930;2022-08-25T06:19:09;19.20;99.90
36206;DHT22;22242;48.796;9.930;2022-08-25T06:21:36;19.30;99.90
36206;DHT22;22242;48.796;9.930;2022-08-25T06:24:05;19.60;99.90
36206;DHT22;22242;48.796;9.930;2022-08-25T06:26:34;20.00;99.90
36206;DHT22;22242;48.796;9.930;2022-08-25T06:29:02;20.30;99.90
36206;DHT22;22242;48.796;9.930;2022-08-25T06:31:29;20.20;99.90
36206;DHT22;22242;48.796;9.930;2022-08-25T06:33:56;20.40;99.90
36206;DHT22;22242;48.796;9.930;2022-08-25T06:36:23;20.30;99.90
36206;DHT22;22242;48.796;9.930;2022-08-25T06:38:51;20.80;99.90
36206;DHT22;22242;48.796;9.930;2022-08-25T06:41:18;21.40;99.90
36206;DHT22;22242;48.796;9.930;2022-08-25T06:43:46;21.70;99.90
36206;DHT22;22242;48.796;9.930;2022-08-25T06:46:15;22.00;99.90
36206;DHT22;22242;48.796;9.930;2022-08-25T06:48:43;22.20;99.90
36206;DHT22;22242;48.796;9.930;2022-08-25T06:51:12;21.90;99.90
36206;DHT22;22242;48.796;9.930;2022-08-25T06:53:40;22.10;99.90
36206;DHT22;22242;48.796;9.930;2022-08-25T06:56:08;22.90;99.90
36206;DHT22;22242;48.796;9.930;2022-08-25T06:58:35;23.00;99.90
36206;DHT22;22242;48.796;9.930;2022-08-25T07:01:09;23.10;99.90
36206;DHT22;22242;48.796;9.930;2022-08-25T07:03:36;23.20;99.90
36206;DHT22;22242;48.796;9.930;2022-08-25T07:06:03;24.20;99.90
36206;DHT22;22242;48.796;9.930;2022-08-25T07:08:31;25.10;99.90
36206;DHT22;22242;48.796;9.930;2022-08-25T07:11:02;25.80;99.90
36206;DHT22;22242;48.796;9.930;2022-08-25T07:13:29;25.30;99.90
36206;DHT22;22242;48.796;9.930;2022-08-25T07:18:35;25.90;99.90
36206;DHT22;22242;48.796;9.930;2022-08-25T07:21:02;25.90;99.90
36206;DHT22;22242;48.796;9.930;2022-08-25T07:23:29;26.70;99.90
36206;DHT22;22242;48.796;9.930;2022-08-25T07:26:06;27.10;99.90
36206;DHT22;22242;48.796;9.930;2022-08-25T07:28:33;27.20;99.90
36206;DHT22;22242;48.796;9.930;2022-08-25T07:31:00;28.10;99.90
36206;DHT22;22242;48.796;9.930;2022-08-25T07:33:27;27.60;99.90
36206;DHT22;22242;48.796;9.930;2022-08-25T07:35:56;27.50;99.90
36206;DHT22;22242;48.796;9.930;2022-08-25T07:38:22;26.80;99.90
36206;DHT22;22242;48.796;9.930;2022-08-25T07:40:49;26.60;99.90
36206;DHT22;22242;48.796;9.930;2022-08-25T07:43:20;26.90;99.90
36206;DHT22;22242;48.796;9.930;2022-08-25T07:45:48;26.50;99.90
36206;DHT22;22242;48.796;9.930;2022-08-25T07:48:16;26.30;99.90
36206;DHT22;22242;48.796;9.930;2022-08-25T07:50:46;27.20;99.90
36206;DHT22;22242;48.796;9.930;2022-08-25T07:53:15;26.60;99.90
36206;DHT22;22242;48.796;9.930;2022-08-25T07:55:43;28.70;97.90
36206;DHT22;22242;48.796;9.930;2022-08-25T07:58:10;29.60;94.80
36206;DHT22;22242;48.796;9.930;2022-08-25T08:00:37;29.90;95.90
36206;DHT22;22242;48.796;9.930;2022-08-25T08:03:07;29.80;94.10
36206;DHT22;22242;48.796;9.930;2022-08-25T08:05:35;28.40;96.50
36206;DHT22;22242;48.796;9.930;2022-08-25T08:08:02;28.10;97.80
36206;DHT22;22242;48.796;9.930;2022-08-25T08:10:31;29.10;97.00
36206;DHT22;22242;48.796;9.930;2022-08-25T08:12:58;28.30;96.90
36206;DHT22;22242;48.796;9.930;2022-08-25T08:15:25;29.40;95.20
36206;DHT22;22242;48.796;9.930;2022-08-25T08:17:51;28.50;95.80
36206;DHT22;22242;48.796;9.930;2022-08-25T08:20:19;28.00;96.90
36206;DHT22;22242;48.796;9.930;2022-08-25T08:22:46;29.00;95.80
36206;DHT22;22242;48.796;9.930;2022-08-25T08:25:13;28.80;95.10
36206;DHT22;22242;48.796;9.930;2022-08-25T08:27:41;28.30;95.80
36206;DHT22;22242;48.796;9.930;2022-08-25T08:30:12;28.80;94.90
36206;DHT22;22242;48.796;9.930;2022-08-25T08:32:39;29.30;95.30
36206;DHT22;22242;48.796;9.930;2022-08-25T08:35:07;28.60;94.70
36206;DHT22;22242;48.796;9.930;2022-08-25T08:37:34;28.60;95.00
36206;DHT22;22242;48.796;9.930;2022-08-25T08:40:08;28.60;94.90
36206;DHT22;22242;48.796;9.930;2022-08-25T08:42:45;29.40;94.60
36206;DHT22;22242;48.796;9.930;2022-08-25T08:45:24;29.80;93.30
36206;DHT22;22242;48.796;9.930;2022-08-25T08:48:04;29.30;93.80
36206;DHT22;22242;48.796;9.930;2022-08-25T08:50:41;28.70;94.40
36206;DHT22;22242;48.796;9.930;2022-08-25T08:53:13;28.70;94.50
36206;DHT22;22242;48.796;9.930;2022-08-25T08:55:42;28.20;95.40
36206;DHT22;22242;48.796;9.930;2022-08-25T08:58:16;28.10;96.40
36206;DHT22;22242;48.796;9.930;2022-08-25T09:00:47;29.00;96.00
36206;DHT22;22242;48.796;9.930;2022-08-25T09:03:26;30.70;93.90
36206;DHT22;22242;48.796;9.930;2022-08-25T09:05:58;30.10;92.40
36206;DHT22;22242;48.796;9.930;2022-08-25T09:08:26;30.10;92.60
36206;DHT22;22242;48.796;9.930;2022-08-25T09:10:59;32.80;85.80
36206;DHT22;22242;48.796;9.930;2022-08-25T09:13:39;32.90;85.50
36206;DHT22;22242;48.796;9.930;2022-08-25T09:19:09;29.90;90.40
36206;DHT22;22242;48.796;9.930;2022-08-25T09:21:44;30.20;91.40
36206;DHT22;22242;48.796;9.930;2022-08-25T09:24:25;30.00;91.80
36206;DHT22;22242;48.796;9.930;2022-08-25T09:27:05;30.10;90.20
36206;DHT22;22242;48.796;9.930;2022-08-25T09:29:59;31.60;90.20
36206;DHT22;22242;48.796;9.930;2022-08-25T09:32:29;32.00;88.40
36206;DHT22;22242;48.796;9.930;2022-08-25T09:34:58;31.90;87.60
36206;DHT22;22242;48.796;9.930;2022-08-25T09:37:26;31.80;85.70
36206;DHT22;22242;48.796;9.930;2022-08-25T09:39:53;31.90;87.40
36206;DHT22;22242;48.796;9.930;2022-08-25T09:42:21;29.50;90.70
36206;DHT22;22242;48.796;9.930;2022-08-25T09:44:53;28.80;91.70
36206;DHT22;22242;48.796;9.930;2022-08-25T09:47:24;28.80;92.20
36206;DHT22;22242;48.796;9.930;2022-08-25T09:49:57;30.10;90.50
36206;DHT22;22242;48.796;9.930;2022-08-25T09:52:28;30.50;90.80
36206;DHT22;22242;48.796;9.930;2022-08-25T09:55:00;30.90;89.90
36206;DHT22;22242;48.796;9.930;2022-08-25T09:57:30;31.30;89.00
36206;DHT22;22242;48.796;9.930;2022-08-25T10:00:15;30.40;90.10
36206;DHT22;22242;48.796;9.930;2022-08-25T10:02:44;29.50;90.80
36206;DHT22;22242;48.796;9.930;2022-08-25T10:05:20;31.40;88.60
36206;DHT22;22242;48.796;9.930;2022-08-25T10:07:50;29.50;90.60
36206;DHT22;22242;48.796;9.930;2022-08-25T10:10:23;29.00;91.10
36206;DHT22;22242;48.796;9.930;2022-08-25T10:12:51;29.40;91.10
36206;DHT22;22242;48.796;9.930;2022-08-25T10:15:25;29.00;91.20
36206;DHT22;22242;48.796;9.930;2022-08-25T10:17:53;30.40;90.20
36206;DHT22;22242;48.796;9.930;2022-08-25T10:20:23;30.00;90.00
36206;DHT22;22242;48.796;9.930;2022-08-25T10:22:51;30.10;90.50
36206;DHT22;22242;48.796;9.930;2022-08-25T10:25:26;29.70;91.00
36206;DHT22;22242;48.796;9.930;2022-08-25T10:28:03;30.50;88.70
36206;DHT22;22242;48.796;9.930;2022-08-25T10:30:44;30.90;87.50
36206;DHT22;22242;48.796;9.930;2022-08-25T10:33:17;31.30;85.40
36206;DHT22;22242;48.796;9.930;2022-08-25T10:35:56;32.10;85.90
36206;DHT22;22242;48.796;9.930;2022-08-25T10:38:34;31.30;85.00
36206;DHT22;22242;48.796;9.930;2022-08-25T10:41:20;31.50;83.50
36206;DHT22;22242;48.796;9.930;2022-08-25T10:44:05;30.80;86.30
36206;DHT22;22242;48.796;9.930;2022-08-25T10:47:07;30.40;87.40
36206;DHT22;22242;48.796;9.930;2022-08-25T10:49:44;31.00;84.90
36206;DHT22;22242;48.796;9.930;2022-08-25T10:52:15;32.10;82.20
36206;DHT22;22242;48.796;9.930;2022-08-25T10:54:48;31.50;80.80
36206;DHT22;22242;48.796;9.930;2022-08-25T10:57:22;31.00;81.40
36206;DHT22;22242;48.796;9.930;2022-08-25T11:00:03;29.20;86.90
36206;DHT22;22242;48.796;9.930;2022-08-25T11:02:57;30.70;83.00
36206;DHT22;22242;48.796;9.930;2022-08-25T11:05:32;30.50;83.20
36206;DHT22;22242;48.796;9.930;2022-08-25T11:08:07;32.20;81.30
36206;DHT22;22242;48.796;9.930;2022-08-25T11:10:41;32.20;78.10
36206;DHT22;22242;48.796;9.930;2022-08-25T11:13:14;31.80;79.20
36206;DHT22;22242;48.796;9.930;2022-08-25T11:15:49;31.20;81.20
36206;DHT22;22242;48.796;9.930;2022-08-25T11:18:19;30.50;81.90
36206;DHT22;22242;48.796;9.930;2022-08-25T11:20:57;29.50;83.90
36206;DHT22;22242;48.796;9.930;2022-08-25T11:23:29;30.10;84.20
36206;DHT22;22242;48.796;9.930;2022-08-25T11:25:59;29.90;83.20
36206;DHT22;22242;48.796;9.930;2022-08-25T11:28:34;29.10;84.80
36206;DHT22;22242;48.796;9.930;2022-08-25T11:31:06;29.20;85.00
36206;DHT22;22242;48.796;9.930;2022-08-25T11:33:36;30.10;85.90
36206;DHT22;22242;48.796;9.930;2022-08-25T11:36:09;30.40;83.10
36206;DHT22;22242;48.796;9.930;2022-08-25T11:38:46;30.30;79.80
36206;DHT22;22242;48.796;9.930;2022-08-25T11:41:24;29.20;83.20
36206;DHT22;22242;48.796;9.930;2022-08-25T11:44:10;27.80;88.30
36206;DHT22;22242;48.796;9.930;2022-08-25T11:46:49;26.90;90.30
36206;DHT22;22242;48.796;9.930;2022-08-25T11:49:42;26.90;90.10
36206;DHT22;22242;48.796;9.930;2022-08-25T11:55:19;26.80;90.10
36206;DHT22;22242;48.796;9.930;2022-08-25T11:57:49;26.60;90.80
36206;DHT22;22242;48.796;9.930;2022-08-25T12:00:36;27.20;90.50
36206;DHT22;22242;48.796;9.930;2022-08-25T12:06:26;27.60;88.10
36206;DHT22;22242;48.796;9.930;2022-08-25T12:09:17;28.20;89.40
36206;DHT22;22242;48.796;9.930;2022-08-25T12:11:55;29.00;84.80
36206;DHT22;22242;48.796;9.930;2022-08-25T12:14:45;28.60;85.50
36206;DHT22;22242;48.796;9.930;2022-08-25T12:17:24;28.50;84.90
36206;DHT22;22242;48.796;9.930;2022-08-25T12:19:57;29.10;84.40
36206;DHT22;22242;48.796;9.930;2022-08-25T12:22:54;29.70;84.00
36206;DHT22;22242;48.796;9.930;2022-08-25T12:25:42;30.10;82.10
36206;DHT22;22242;48.796;9.930;2022-08-25T12:28:30;30.00;81.40
36206;DHT22;22242;48.796;9.930;2022-08-25T12:31:04;29.40;82.60
36206;DHT22;22242;48.796;9.930;2022-08-25T12:33:42;28.80;83.00
36206;DHT22;22242;48.796;9.930;2022-08-25T12:36:25;29.10;85.60
36206;DHT22;22242;48.796;9.930;2022-08-25T12:39:07;29.00;84.60
36206;DHT22;22242;48.796;9.930;2022-08-25T12:41:52;27.60;86.50
36206;DHT22;22242;48.796;9.930;2022-08-25T12:44:35;27.10;90.40
36206;DHT22;22242;48.796;9.930;2022-08-25T12:49:53;27.70;87.00
36206;DHT22;22242;48.796;9.930;2022-08-25T12:52:41;27.30;87.40
36206;DHT22;22242;48.796;9.930;2022-08-25T12:55:10;26.90;89.90
36206;DHT22;22242;48.796;9.930;2022-08-25T12:57:42;27.00;89.80
36206;DHT22;22242;48.796;9.930;2022-08-25T13:00:19;27.30;88.70
36206;DHT22;22242;48.796;9.930;2022-08-25T13:03:21;27.40;87.80
36206;DHT22;22242;48.796;9.930;2022-08-25T13:09:29;27.30;89.90
36206;DHT22;22242;48.796;9.930;2022-08-25T13:12:12;26.90;90.30
36206;DHT22;22242;48.796;9.930;2022-08-25T13:14:43;27.40;90.80
36206;DHT22;22242;48.796;9.930;2022-08-25T13:17:11;27.20;91.20
36206;DHT22;22242;48.796;9.930;2022-08-25T13:19:50;27.20;90.50
36206;DHT22;22242;48.796;9.930;2022-08-25T13:22:17;27.30;90.80
36206;DHT22;22242;48.796;9.930;2022-08-25T13:24:46;27.40;90.50
36206;DHT22;22242;48.796;9.930;2022-08-25T13:27:21;27.30;90.10
36206;DHT22;22242;48.796;9.930;2022-08-25T13:29:52;27.40;90.70
36206;DHT22;22242;48.796;9.930;2022-08-25T13:32:26;27.10;91.00
36206;DHT22;22242;48.796;9.930;2022-08-25T13:35:07;27.50;90.40
36206;DHT22;22242;48.796;9.930;2022-08-25T13:37:36;27.50;90.80
36206;DHT22;22242;48.796;9.930;2022-08-25T13:40:08;27.60;91.10
36206;DHT22;22242;48.796;9.930;2022-08-25T13:42:37;27.30;91.00
36206;DHT22;22242;48.796;9.930;2022-08-25T13:45:06;27.20;91.60
36206;DHT22;22242;48.796;9.930;2022-08-25T13:47:38;27.30;92.20
36206;DHT22;22242;48.796;9.930;2022-08-25T13:50:21;27.00;91.50
36206;DHT22;22242;48.796;9.930;2022-08-25T13:52:54;27.30;91.60
36206;DHT22;22242;48.796;9.930;2022-08-25T13:55:26;27.20;91.30
36206;DHT22;22242;48.796;9.930;2022-08-25T13:58:18;27.10;90.40
36206;DHT22;22242;48.796;9.930;2022-08-25T14:01:07;27.30;88.00
36206;DHT22;22242;48.796;9.930;2022-08-25T14:03:42;27.70;87.80
36206;DHT22;22242;48.796;9.930;2022-08-25T14:06:23;27.80;87.70
36206;DHT22;22242;48.796;9.930;2022-08-25T14:09:21;27.90;90.30
36206;DHT22;22242;48.796;9.930;2022-08-25T14:12:17;27.50;88.90
36206;DHT22;22242;48.796;9.930;2022-08-25T14:15:03;27.60;89.80
36206;DHT22;22242;48.796;9.930;2022-08-25T14:18:06;28.00;88.90
36206;DHT22;22242;48.796;9.930;2022-08-25T14:20:36;27.70;88.20
36206;DHT22;22242;48.796;9.930;2022-08-25T14:23:07;27.40;90.40
36206;DHT22;22242;48.796;9.930;2022-08-25T14:25:38;27.40;90.30
36206;DHT22;22242;48.796;9.930;2022-08-25T14:28:12;27.10;88.80
36206;DHT22;22242;48.796;9.930;2022-08-25T14:30:45;27.30;90.50
36206;DHT22;22242;48.796;9.930;2022-08-25T14:33:14;27.30;89.30
36206;DHT22;22242;48.796;9.930;2022-08-25T14:35:45;27.80;90.20
36206;DHT22;22242;48.796;9.930;2022-08-25T14:38:14;28.00;88.60
36206;DHT22;22242;48.796;9.930;2022-08-25T14:40:43;28.40;82.00
36206;DHT22;22242;48.796;9.930;2022-08-25T14:43:15;28.00;82.90
36206;DHT22;22242;48.796;9.930;2022-08-25T14:45:46;27.50;86.80
36206;DHT22;22242;48.796;9.930;2022-08-25T14:48:17;27.50;88.30
36206;DHT22;22242;48.796;9.930;2022-08-25T14:50:49;27.30;88.10
36206;DHT22;22242;48.796;9.930;2022-08-25T14:53:16;27.00;89.70
36206;DHT22;22242;48.796;9.930;2022-08-25T14:55:43;26.80;90.20
36206;DHT22;22242;48.796;9.930;2022-08-25T14:58:10;26.80;90.50
36206;DHT22;22242;48.796;9.930;2022-08-25T15:00:40;26.70;90.80
36206;DHT22;22242;48.796;9.930;2022-08-25T15:03:11;26.80;90.80
36206;DHT22;22242;48.796;9.930;2022-08-25T15:05:39;26.90;90.40
36206;DHT22;22242;48.796;9.930;2022-08-25T15:08:08;27.20;90.80
36206;DHT22;22242;48.796;9.930;2022-08-25T15:10:53;27.30;90.30
36206;DHT22;22242;48.796;9.930;2022-08-25T15:13:20;27.10;90.20
36206;DHT22;22242;48.796;9.930;2022-08-25T15:15:48;27.30;89.90
36206;DHT22;22242;48.796;9.930;2022-08-25T15:18:17;27.30;90.20
36206;DHT22;22242;48.796;9.930;2022-08-25T15:20:44;27.20;90.10
36206;DHT22;22242;48.796;9.930;2022-08-25T15:23:11;27.00;90.40
36206;DHT22;22242;48.796;9.930;2022-08-25T15:25:39;26.80;90.90
36206;DHT22;22242;48.796;9.930;2022-08-25T15:28:07;26.50;90.60
36206;DHT22;22242;48.796;9.930;2022-08-25T15:30:34;26.60;90.90
36206;DHT22;22242;48.796;9.930;2022-08-25T15:33:01;26.70;90.80
36206;DHT22;22242;48.796;9.930;2022-08-25T15:35:30;26.80;91.10
36206;DHT22;22242;48.796;9.930;2022-08-25T15:37:57;26.70;90.50
36206;DHT22;22242;48.796;9.930;2022-08-25T15:40:23;26.70;90.90
36206;DHT22;22242;48.796;9.930;2022-08-25T15:42:50;26.60;90.90
36206;DHT22;22242;48.796;9.930;2022-08-25T15:45:18;26.50;90.70
36206;DHT22;22242;48.796;9.930;2022-08-25T15:47:45;26.50;91.10
36206;DHT22;22242;48.796;9.930;2022-08-25T15:50:15;26.80;90.60
36206;DHT22;22242;48.796;9.930;2022-08-25T15:52:44;27.00;90.40
36206;DHT22;22242;48.796;9.930;2022-08-25T15:55:12;27.20;90.20
36206;DHT22;22242;48.796;9.930;2022-08-25T15:57:39;27.40;90.20
36206;DHT22;22242;48.796;9.930;2022-08-25T16:00:09;27.20;89.90
36206;DHT22;22242;48.796;9.930;2022-08-25T16:02:37;27.10;89.90
36206;DHT22;22242;48.796;9.930;2022-08-25T16:05:04;26.90;90.60
36206;DHT22;22242;48.796;9.930;2022-08-25T16:07:32;26.70;90.90
36206;DHT22;22242;48.796;9.930;2022-08-25T16:10:00;26.60;91.10
36206;DHT22;22242;48.796;9.930;2022-08-25T16:12:27;26.60;91.20
36206;DHT22;22242;48.796;9.930;2022-08-25T16:14:54;26.50;91.30